sensor_id;sensor_type;location;lat;lon;timestamp;temperature;humidity
25554;DHT22;13446;50.926;5.332;2022-12-07T00:00:46;6.70;99.90
25554;DHT22;13446;50.926;5.332;2022-12-07T00:03:11;6.70;99.90
25554;DHT22;13446;50.926;5.332;2022-12-07T00:05:37;6.60;99.90
25554;DHT22;13446;50.926;5.332;2022-12-07T00:08:02;6.60;99.90
25554;DHT22;13446;50.926;5.332;2022-12-07T00:10:29;6.50;99.90
25554;DHT22;13446;50.926;5.332;2022-12-07T00:12:55;6.40;99.90
25554;DHT22;13446;50.926;5.332;2022-12-07T00:15:20;6.50;99.90
25554;DHT22;13446;50.926;5.332;2022-12-07T00:17:46;6.50;99.90
25554;DHT22;13446;50.926;5.332;2022-12-07T00:20:11;6.60;99.90
25554;DHT22;13446;50.926;5.332;2022-12-07T00:22:37;6.60;99.90
25554;DHT22;13446;50.926;5.332;2022-12-07T00:25:02;6.50;99.90
25554;DHT22;13446;50.926;5.332;2022-12-07T00:27:29;6.50;99.90
25554;DHT22;13446;50.926;5.332;2022-12-07T00:29:55;6.50;99.90
25554;DHT22;13446;50.926;5.332;2022-12-07T00:32:20;6.40;99.90
25554;DHT22;13446;50.926;5.332;2022-12-07T00:34:46;6.40;99.90
25554;DHT22;13446;50.926;5.332;2022-12-07T00:37:11;6.40;99.90
25554;DHT22;13446;50.926;5.332;2022-12-07T00:39:38;6.40;99.90
25554;DHT22;13446;50.926;5.332;2022-12-07T00:42:03;6.40;99.90
25554;DHT22;13446;50.926;5.332;2022-12-07T00:44:29;6.40;99.90
25554;DHT22;13446;50.926;5.332;2022-12-07T00:46:54;6.40;99.90
25554;DHT22;13446;50.926;5.332;2022-12-07T00:49:21;6.40;99.90
25554;DHT22;13446;50.926;5.332;2022-12-07T00:51:47;6.40;99.90
25554;DHT22;13446;50.926;5.332;2022-12-07T00:54:13;6.40;99.90
25554;DHT22;13446;50.926;5.332;2022-12-07T00:56:39;6.40;99.90
25554;DHT22;13446;50.926;5.332;2022-12-07T00:59:04;6.50;99.90
25554;DHT22;13446;50.926;5.332;2022-12-07T01:01:31;6.40;99.90
25554;DHT22;13446;50.926;5.332;2022-12-07T01:03:57;6.50;99.90
25554;DHT22;13446;50.926;5.332;2022-12-07T01:06:23;6.60;99.90
25554;DHT22;13446;50.926;5.332;2022-12-07T01:08:49;6.50;99.90
25554;DHT22;13446;50.926;5.332;2022-12-07T01:11:16;6.50;99.90
25554;DHT22;13446;50.926;5.332;2022-12-07T01:13:42;6.50;99.90
25554;DHT22;13446;50.926;5.332;2022-12-07T01:16:08;6.50;99.90
25554;DHT22;13446;50.926;5.332;2022-12-07T01:18:35;6.60;99.90
25554;DHT22;13446;50.926;5.332;2022-12-07T01:21:02;6.70;99.90
25554;DHT22;13446;50.926;5.332;2022-12-07T01:23:28;6.60;99.90
25554;DHT22;13446;50.926;5.332;2022-12-07T01:25:57;6.50;99.90
25554;DHT22;13446;50.926;5.332;2022-12-07T01:28:23;6.60;99.90
25554;DHT22;13446;50.926;5.332;2022-12-07T01:33:46;6.80;99.90
25554;DHT22;13446;50.926;5.332;2022-12-07T01:36:16;6.90;99.90
25554;DHT22;13446;50.926;5.332;2022-12-07T01:38:43;6.90;99.90
25554;DHT22;13446;50.926;5.332;2022-12-07T01:41:08;6.90;99.90
25554;DHT22;13446;50.926;5.332;2022-12-07T01:43:34;6.80;99.90
25554;DHT22;13446;50.926;5.332;2022-12-07T01:46:00;6.80;99.90
25554;DHT22;13446;50.926;5.332;2022-12-07T01:48:31;6.90;99.90
25554;DHT22;13446;50.926;5.332;2022-12-07T01:51:00;6.90;99.90
25554;DHT22;13446;50.926;5.332;2022-12-07T01:53:26;6.90;99.90
25554;DHT22;13446;50.926;5.332;2022-12-07T01:55:53;6.80;99.90
25554;DHT22;13446;50.926;5.332;2022-12-07T01:58:19;6.90;99.90
25554;DHT22;13446;50.926;5.332;2022-12-07T02:00:45;6.80;99.90
25554;DHT22;13446;50.926;5.332;2022-12-07T02:03:34;6.80;99.90
25554;DHT22;13446;50.926;5.332;2022-12-07T02:05:57;6.80;99.90
25554;DHT22;13446;50.926;5.332;2022-12-07T02:08:24;6.60;99.90
25554;DHT22;13446;50.926;5.332;2022-12-07T02:10:50;6.50;99.90
25554;DHT22;13446;50.926;5.332;2022-12-07T02:13:19;6.50;99.90
25554;DHT22;13446;50.926;5.332;2022-12-07T02:31:16;6.50;99.90
25554;DHT22;13446;50.926;5.332;2022-12-07T02:33:44;6.50;99.90
25554;DHT22;13446;50.926;5.332;2022-12-07T02:36:12;6.50;99.90
25554;DHT22;13446;50.926;5.332;2022-12-07T02:38:40;6.50;99.90
25554;DHT22;13446;50.926;5.332;2022-12-07T02:43:35;6.50;99.90
25554;DHT22;13446;50.926;5.332;2022-12-07T02:46:02;6.50;99.90
25554;DHT22;13446;50.926;5.332;2022-12-07T02:48:28;6.50;99.90
25554;DHT22;13446;50.926;5.332;2022-12-07T02:50:55;6.50;99.90
25554;DHT22;13446;50.926;5.332;2022-12-07T02:53:34;6.70;99.90
25554;DHT22;13446;50.926;5.332;2022-12-07T02:56:22;6.70;99.90
25554;DHT22;13446;50.926;5.332;2022-12-07T03:04:09;6.70;99.90
25554;DHT22;13446;50.926;5.332;2022-12-07T03:06:41;6.70;99.90
25554;DHT22;13446;50.926;5.332;2022-12-07T03:11:42;6.60;99.90
25554;DHT22;13446;50.926;5.332;2022-12-07T03:14:21;6.70;99.90
25554;DHT22;13446;50.926;5.332;2022-12-07T03:16:59;6.70;99.90
25554;DHT22;13446;50.926;5.332;2022-12-07T03:19:30;6.80;99.90
25554;DHT22;13446;50.926;5.332;2022-12-07T03:21:57;6.60;99.90
25554;DHT22;13446;50.926;5.332;2022-12-07T03:24:26;6.50;99.90
25554;DHT22;13446;50.926;5.332;2022-12-07T03:26:53;6.50;99.90
25554;DHT22;13446;50.926;5.332;2022-12-07T03:29:21;6.50;99.90
25554;DHT22;13446;50.926;5.332;2022-12-07T03:31:48;6.50;99.90
25554;DHT22;13446;50.926;5.332;2022-12-07T03:34:24;6.50;99.90
25554;DHT22;13446;50.926;5.332;2022-12-07T03:37:03;6.40;99.90
25554;DHT22;13446;50.926;5.332;2022-12-07T03:39:37;6.50;99.90
25554;DHT22;13446;50.926;5.332;2022-12-07T03:42:05;6.40;99.90
25554;DHT22;13446;50.926;5.332;2022-12-07T03:44:33;6.40;99.90
25554;DHT22;13446;50.926;5.332;2022-12-07T03:47:01;6.40;99.90
25554;DHT22;13446;50.926;5.332;2022-12-07T03:57:12;6.60;99.90
25554;DHT22;13446;50.926;5.332;2022-12-07T03:59:38;6.50;99.90
25554;DHT22;13446;50.926;5.332;2022-12-07T04:02:05;6.50;99.90
25554;DHT22;13446;50.926;5.332;2022-12-07T04:04:31;6.40;99.90
25554;DHT22;13446;50.926;5.332;2022-12-07T04:06:56;6.30;99.90
25554;DHT22;13446;50.926;5.332;2022-12-07T04:09:22;6.30;99.90
25554;DHT22;13446;50.926;5.332;2022-12-07T04:11:47;6.40;99.90
25554;DHT22;13446;50.926;5.332;2022-12-07T04:14:13;6.50;99.90
25554;DHT22;13446;50.926;5.332;2022-12-07T04:16:45;6.40;99.90
25554;DHT22;13446;50.926;5.332;2022-12-07T04:19:11;6.20;99.90
25554;DHT22;13446;50.926;5.332;2022-12-07T04:21:36;6.20;99.90
25554;DHT22;13446;50.926;5.332;2022-12-07T04:24:03;6.10;99.90
25554;DHT22;13446;50.926;5.332;2022-12-07T04:26:28;6.00;99.90
25554;DHT22;13446;50.926;5.332;2022-12-07T04:28:54;5.90;99.90
25554;DHT22;13446;50.926;5.332;2022-12-07T04:31:19;5.90;99.90
25554;DHT22;13446;50.926;5.332;2022-12-07T04:33:45;5.80;99.90
25554;DHT22;13446;50.926;5.332;2022-12-07T04:36:10;5.90;99.90
25554;DHT22;13446;50.926;5.332;2022-12-07T04:38:36;5.80;99.90
25554;DHT22;13446;50.926;5.332;2022-12-07T04:41:08;5.70;99.90
25554;DHT22;13446;50.926;5.332;2022-12-07T04:43:35;5.70;99.90
25554;DHT22;13446;50.926;5.332;2022-12-07T04:46:01;5.70;99.90
25554;DHT22;13446;50.926;5.332;2022-12-07T04:48:26;5.70;99.90
25554;DHT22;13446;50.926;5.332;2022-12-07T04:50:52;5.70;99.90
25554;DHT22;13446;50.926;5.332;2022-12-07T04:53:18;5.70;99.90
25554;DHT22;13446;50.926;5.332;2022-12-07T04:55:43;5.90;99.90
25554;DHT22;13446;50.926;5.332;2022-12-07T04:58:09;5.90;99.90
25554;DHT22;13446;50.926;5.332;2022-12-07T05:00:35;5.70;99.90
25554;DHT22;13446;50.926;5.332;2022-12-07T05:03:00;5.70;99.90
25554;DHT22;13446;50.926;5.332;2022-12-07T05:05:26;5.80;99.90
25554;DHT22;13446;50.926;5.332;2022-12-07T05:07:51;5.80;99.90
25554;DHT22;13446;50.926;5.332;2022-12-07T05:10:17;5.70;99.90
25554;DHT22;13446;50.926;5.332;2022-12-07T05:12:42;5.70;99.90
25554;DHT22;13446;50.926;5.332;2022-12-07T05:15:08;5.80;99.90
25554;DHT22;13446;50.926;5.332;2022-12-07T05:17:34;5.70;99.90
25554;DHT22;13446;50.926;5.332;2022-12-07T05:19:59;5.60;99.90
25554;DHT22;13446;50.926;5.332;2022-12-07T05:22:25;5.50;99.90
25554;DHT22;13446;50.926;5.332;2022-12-07T05:24:56;5.40;99.90
25554;DHT22;13446;50.926;5.332;2022-12-07T05:27:22;5.30;99.90
25554;DHT22;13446;50.926;5.332;2022-12-07T05:29:49;5.40;99.90
25554;DHT22;13446;50.926;5.332;2022-12-07T05:32:15;5.30;99.90
25554;DHT22;13446;50.926;5.332;2022-12-07T05:34:40;5.40;99.90
25554;DHT22;13446;50.926;5.332;2022-12-07T05:37:06;5.40;99.90
25554;DHT22;13446;50.926;5.332;2022-12-07T05:39:31;5.20;99.90
25554;DHT22;13446;50.926;5.332;2022-12-07T05:41:57;5.10;99.90
25554;DHT22;13446;50.926;5.332;2022-12-07T05:44:41;5.30;99.90
25554;DHT22;13446;50.926;5.332;2022-12-07T05:47:07;5.40;99.90
25554;DHT22;13446;50.926;5.332;2022-12-07T05:49:32;5.50;99.90
25554;DHT22;13446;50.926;5.332;2022-12-07T05:51:58;5.60;99.90
25554;DHT22;13446;50.926;5.332;2022-12-07T05:54:24;5.60;99.90
25554;DHT22;13446;50.926;5.332;2022-12-07T05:56:50;5.60;99.90
25554;DHT22;13446;50.926;5.332;2022-12-07T05:59:16;5.60;99.90
25554;DHT22;13446;50.926;5.332;2022-12-07T06:01:53;5.60;99.90
25554;DHT22;13446;50.926;5.332;2022-12-07T06:04:19;5.60;99.90
25554;DHT22;13446;50.926;5.332;2022-12-07T06:06:45;5.60;99.90
25554;DHT22;13446;50.926;5.332;2022-12-07T06:09:11;5.60;99.90
25554;DHT22;13446;50.926;5.332;2022-12-07T06:11:38;5.70;99.90
25554;DHT22;13446;50.926;5.332;2022-12-07T06:14:29;5.80;99.90
25554;DHT22;13446;50.926;5.332;2022-12-07T06:16:55;5.80;99.90
25554;DHT22;13446;50.926;5.332;2022-12-07T06:19:20;5.90;99.90
25554;DHT22;13446;50.926;5.332;2022-12-07T06:21:46;5.90;99.90
25554;DHT22;13446;50.926;5.332;2022-12-07T06:24:12;5.90;99.90
25554;DHT22;13446;50.926;5.332;2022-12-07T06:26:38;5.90;99.90
25554;DHT22;13446;50.926;5.332;2022-12-07T06:29:04;5.90;99.90
25554;DHT22;13446;50.926;5.332;2022-12-07T06:31:29;6.00;99.90
25554;DHT22;13446;50.926;5.332;2022-12-07T06:33:58;6.00;99.90
25554;DHT22;13446;50.926;5.332;2022-12-07T06:36:24;6.00;99.90
25554;DHT22;13446;50.926;5.332;2022-12-07T06:38:50;6.00;99.90
25554;DHT22;13446;50.926;5.332;2022-12-07T06:41:15;6.00;99.90
25554;DHT22;13446;50.926;5.332;2022-12-07T06:43:41;6.00;99.90
25554;DHT22;13446;50.926;5.332;2022-12-07T06:46:07;6.00;99.90
25554;DHT22;13446;50.926;5.332;2022-12-07T06:48:32;6.00;99.90
25554;DHT22;13446;50.926;5.332;2022-12-07T06:50:58;6.10;99.90
25554;DHT22;13446;50.926;5.332;2022-12-07T06:53:23;6.10;99.90
25554;DHT22;13446;50.926;5.332;2022-12-07T06:55:49;6.00;99.90
25554;DHT22;13446;50.926;5.332;2022-12-07T06:58:15;6.00;99.90
25554;DHT22;13446;50.926;5.332;2022-12-07T07:00:40;5.80;99.90
25554;DHT22;13446;50.926;5.332;2022-12-07T07:03:07;5.80;99.90
25554;DHT22;13446;50.926;5.332;2022-12-07T07:05:32;6.00;99.90
25554;DHT22;13446;50.926;5.332;2022-12-07T07:07:58;6.00;99.90
25554;DHT22;13446;50.926;5.332;2022-12-07T07:10:24;6.00;99.90
25554;DHT22;13446;50.926;5.332;2022-12-07T07:12:49;6.00;99.90
25554;DHT22;13446;50.926;5.332;2022-12-07T07:15:15;5.90;99.90
25554;DHT22;13446;50.926;5.332;2022-12-07T07:17:40;5.90;99.90
25554;DHT22;13446;50.926;5.332;2022-12-07T07:20:06;5.80;99.90
25554;DHT22;13446;50.926;5.332;2022-12-07T07:22:32;5.80;99.90
25554;DHT22;13446;50.926;5.332;2022-12-07T07:24:57;5.70;99.90
25554;DHT22;13446;50.926;5.332;2022-12-07T07:27:24;5.70;99.90
25554;DHT22;13446;50.926;5.332;2022-12-07T07:29:49;5.60;99.90
25554;DHT22;13446;50.926;5.332;2022-12-07T07:32:15;5.60;99.90
25554;DHT22;13446;50.926;5.332;2022-12-07T07:34:41;5.60;99.90
25554;DHT22;13446;50.926;5.332;2022-12-07T07:37:07;5.50;99.90
25554;DHT22;13446;50.926;5.332;2022-12-07T07:39:32;5.50;99.90
25554;DHT22;13446;50.926;5.332;2022-12-07T07:41:58;5.60;99.90
25554;DHT22;13446;50.926;5.332;2022-12-07T07:44:23;5.60;99.90
25554;DHT22;13446;50.926;5.332;2022-12-07T07:46:49;5.50;99.90
25554;DHT22;13446;50.926;5.332;2022-12-07T07:49:14;5.50;99.90
25554;DHT22;13446;50.926;5.332;2022-12-07T07:51:40;5.40;99.90
25554;DHT22;13446;50.926;5.332;2022-12-07T07:54:05;5.40;99.90
25554;DHT22;13446;50.926;5.332;2022-12-07T07:56:31;5.30;99.90
25554;DHT22;13446;50.926;5.332;2022-12-07T07:58:56;5.40;99.90
25554;DHT22;13446;50.926;5.332;2022-12-07T08:01:22;5.40;99.90
25554;DHT22;13446;50.926;5.332;2022-12-07T08:03:48;5.40;99.90
25554;DHT22;13446;50.926;5.332;2022-12-07T08:06:13;5.40;99.90
25554;DHT22;13446;50.926;5.332;2022-12-07T08:08:39;5.30;99.90
25554;DHT22;13446;50.926;5.332;2022-12-07T08:11:05;5.30;99.90
25554;DHT22;13446;50.926;5.332;2022-12-07T08:13:30;5.40;99.90
25554;DHT22;13446;50.926;5.332;2022-12-07T08:15:56;5.50;99.90
25554;DHT22;13446;50.926;5.332;2022-12-07T08:18:21;5.60;99.90
25554;DHT22;13446;50.926;5.332;2022-12-07T08:20:47;5.60;99.90
25554;DHT22;13446;50.926;5.332;2022-12-07T08:23:12;5.70;99.90
25554;DHT22;13446;50.926;5.332;2022-12-07T08:25:38;5.90;99.90
25554;DHT22;13446;50.926;5.332;2022-12-07T08:28:04;6.20;99.90
25554;DHT22;13446;50.926;5.332;2022-12-07T08:30:29;6.50;99.90
25554;DHT22;13446;50.926;5.332;2022-12-07T08:32:55;6.70;99.90
25554;DHT22;13446;50.926;5.332;2022-12-07T08:35:21;6.90;99.90
25554;DHT22;13446;50.926;5.332;2022-12-07T08:37:47;7.00;99.90
25554;DHT22;13446;50.926;5.332;2022-12-07T08:40:12;7.20;99.90
25554;DHT22;13446;50.926;5.332;2022-12-07T08:42:48;7.30;99.90
25554;DHT22;13446;50.926;5.332;2022-12-07T08:45:14;7.80;99.90
25554;DHT22;13446;50.926;5.332;2022-12-07T08:48:01;8.30;99.90
25554;DHT22;13446;50.926;5.332;2022-12-07T08:50:25;8.90;99.90
25554;DHT22;13446;50.926;5.332;2022-12-07T08:52:52;9.60;99.90
25554;DHT22;13446;50.926;5.332;2022-12-07T08:55:18;10.50;99.90
25554;DHT22;13446;50.926;5.332;2022-12-07T08:57:44;11.00;99.90
25554;DHT22;13446;50.926;5.332;2022-12-07T09:00:10;11.20;99.90
25554;DHT22;13446;50.926;5.332;2022-12-07T09:02:36;11.10;99.90
25554;DHT22;13446;50.926;5.332;2022-12-07T09:05:02;10.80;99.90
25554;DHT22;13446;50.926;5.332;2022-12-07T09:07:28;10.40;99.90
25554;DHT22;13446;50.926;5.332;2022-12-07T09:09:55;10.10;99.90
25554;DHT22;13446;50.926;5.332;2022-12-07T09:12:21;10.10;99.90
25554;DHT22;13446;50.926;5.332;2022-12-07T09:14:46;10.30;99.90
25554;DHT22;13446;50.926;5.332;2022-12-07T09:17:12;10.60;99.90
25554;DHT22;13446;50.926;5.332;2022-12-07T09:19:39;10.60;99.90
25554;DHT22;13446;50.926;5.332;2022-12-07T09:22:05;10.90;99.90
25554;DHT22;13446;50.926;5.332;2022-12-07T09:24:31;10.80;99.90
25554;DHT22;13446;50.926;5.332;2022-12-07T09:26:57;11.00;99.90
25554;DHT22;13446;50.926;5.332;2022-12-07T09:29:23;10.90;99.90
25554;DHT22;13446;50.926;5.332;2022-12-07T09:31:48;11.20;99.90
25554;DHT22;13446;50.926;5.332;2022-12-07T09:34:14;11.20;99.90
25554;DHT22;13446;50.926;5.332;2022-12-07T09:36:40;11.10;99.90
25554;DHT22;13446;50.926;5.332;2022-12-07T09:39:08;10.60;99.90
25554;DHT22;13446;50.926;5.332;2022-12-07T09:41:33;10.50;99.90
25554;DHT22;13446;50.926;5.332;2022-12-07T09:44:13;10.30;99.90
25554;DHT22;13446;50.926;5.332;2022-12-07T09:46:40;10.00;99.90
25554;DHT22;13446;50.926;5.332;2022-12-07T09:49:19;9.80;99.90
25554;DHT22;13446;50.926;5.332;2022-12-07T09:51:46;9.80;99.90
25554;DHT22;13446;50.926;5.332;2022-12-07T09:54:13;9.70;99.90
25554;DHT22;13446;50.926;5.332;2022-12-07T09:56:39;9.40;99.90
25554;DHT22;13446;50.926;5.332;2022-12-07T09:59:05;9.30;99.90
25554;DHT22;13446;50.926;5.332;2022-12-07T10:01:31;9.60;99.90
25554;DHT22;13446;50.926;5.332;2022-12-07T10:06:54;9.30;99.90
25554;DHT22;13446;50.926;5.332;2022-12-07T10:09:20;9.60;99.90
25554;DHT22;13446;50.926;5.332;2022-12-07T10:14:32;13.20;99.90
25554;DHT22;13446;50.926;5.332;2022-12-07T10:16:58;14.70;99.90
25554;DHT22;13446;50.926;5.332;2022-12-07T10:22:00;14.00;99.90
25554;DHT22;13446;50.926;5.332;2022-12-07T10:24:25;14.10;99.90
25554;DHT22;13446;50.926;5.332;2022-12-07T10:26:51;13.90;99.90
25554;DHT22;13446;50.926;5.332;2022-12-07T10:31:46;12.60;99.90
25554;DHT22;13446;50.926;5.332;2022-12-07T10:34:23;12.30;99.90
25554;DHT22;13446;50.926;5.332;2022-12-07T10:36:52;12.00;99.90
25554;DHT22;13446;50.926;5.332;2022-12-07T10:39:19;11.80;99.90
25554;DHT22;13446;50.926;5.332;2022-12-07T10:42:00;11.40;99.90
25554;DHT22;13446;50.926;5.332;2022-12-07T10:44:27;11.10;99.90
25554;DHT22;13446;50.926;5.332;2022-12-07T10:52:00;10.60;99.90
25554;DHT22;13446;50.926;5.332;2022-12-07T11:05:11;9.60;99.90
25554;DHT22;13446;50.926;5.332;2022-12-07T11:10:31;9.10;99.90
25554;DHT22;13446;50.926;5.332;2022-12-07T11:25:32;10.10;99.90
25554;DHT22;13446;50.926;5.332;2022-12-07T11:38:52;11.30;99.90
25554;DHT22;13446;50.926;5.332;2022-12-07T11:41:22;11.70;99.90
25554;DHT22;13446;50.926;5.332;2022-12-07T11:46:24;11.70;99.90
25554;DHT22;13446;50.926;5.332;2022-12-07T11:51:36;11.00;99.90
25554;DHT22;13446;50.926;5.332;2022-12-07T11:54:05;10.80;99.90
25554;DHT22;13446;50.926;5.332;2022-12-07T11:56:37;10.80;99.90
25554;DHT22;13446;50.926;5.332;2022-12-07T12:01:39;10.60;99.90
25554;DHT22;13446;50.926;5.332;2022-12-07T12:06:43;10.20;99.90
25554;DHT22;13446;50.926;5.332;2022-12-07T12:21:53;10.70;99.90
25554;DHT22;13446;50.926;5.332;2022-12-07T12:24:25;10.80;99.90
25554;DHT22;13446;50.926;5.332;2022-12-07T12:26:53;10.80;99.90
25554;DHT22;13446;50.926;5.332;2022-12-07T12:29:31;11.00;99.90
25554;DHT22;13446;50.926;5.332;2022-12-07T12:32:05;11.00;99.90
25554;DHT22;13446;50.926;5.332;2022-12-07T12:42:45;10.70;99.90
25554;DHT22;13446;50.926;5.332;2022-12-07T12:45:25;10.70;99.90
25554;DHT22;13446;50.926;5.332;2022-12-07T12:47:55;10.40;99.90
25554;DHT22;13446;50.926;5.332;2022-12-07T12:50:22;10.10;99.90
25554;DHT22;13446;50.926;5.332;2022-12-07T12:52:53;9.80;99.90
25554;DHT22;13446;50.926;5.332;2022-12-07T12:55:22;9.40;99.90
25554;DHT22;13446;50.926;5.332;2022-12-07T13:00:45;9.70;99.90
25554;DHT22;13446;50.926;5.332;2022-12-07T13:03:27;9.40;99.90
25554;DHT22;13446;50.926;5.332;2022-12-07T13:08:37;9.50;99.90
25554;DHT22;13446;50.926;5.332;2022-12-07T13:16:54;9.40;99.90
25554;DHT22;13446;50.926;5.332;2022-12-07T13:20:05;9.20;99.90
25554;DHT22;13446;50.926;5.332;2022-12-07T13:22:27;9.00;99.90
25554;DHT22;13446;50.926;5.332;2022-12-07T13:24:54;8.90;99.90
25554;DHT22;13446;50.926;5.332;2022-12-07T13:27:21;9.00;99.90
25554;DHT22;13446;50.926;5.332;2022-12-07T13:29:47;9.00;99.90
25554;DHT22;13446;50.926;5.332;2022-12-07T13:32:23;9.20;99.90
25554;DHT22;13446;50.926;5.332;2022-12-07T13:34:49;9.20;99.90
25554;DHT22;13446;50.926;5.332;2022-12-07T13:42:19;8.80;99.90
25554;DHT22;13446;50.926;5.332;2022-12-07T13:44:47;8.90;99.90
25554;DHT22;13446;50.926;5.332;2022-12-07T13:47:46;9.20;99.90
25554;DHT22;13446;50.926;5.332;2022-12-07T13:52:50;8.80;99.90
25554;DHT22;13446;50.926;5.332;2022-12-07T13:55:20;8.80;99.90
25554;DHT22;13446;50.926;5.332;2022-12-07T13:57:50;8.60;99.90
25554;DHT22;13446;50.926;5.332;2022-12-07T14:00:17;8.60;99.90
25554;DHT22;13446;50.926;5.332;2022-12-07T14:02:59;8.80;99.90
25554;DHT22;13446;50.926;5.332;2022-12-07T14:05:29;8.70;99.90
25554;DHT22;13446;50.926;5.332;2022-12-07T14:07:55;8.80;99.90
25554;DHT22;13446;50.926;5.332;2022-12-07T14:10:26;8.90;99.90
25554;DHT22;13446;50.926;5.332;2022-12-07T14:12:52;9.00;99.90
25554;DHT22;13446;50.926;5.332;2022-12-07T14:15:21;9.20;99.90
25554;DHT22;13446;50.926;5.332;2022-12-07T14:17:51;9.30;99.90
25554;DHT22;13446;50.926;5.332;2022-12-07T14:20:39;9.50;99.90
25554;DHT22;13446;50.926;5.332;2022-12-07T14:23:24;9.20;99.90
25554;DHT22;13446;50.926;5.332;2022-12-07T14:25:51;9.00;99.90
25554;DHT22;13446;50.926;5.332;2022-12-07T14:28:27;8.80;99.90
25554;DHT22;13446;50.926;5.332;2022-12-07T14:30:53;8.70;99.90
25554;DHT22;13446;50.926;5.332;2022-12-07T14:33:20;8.60;99.90
25554;DHT22;13446;50.926;5.332;2022-12-07T14:35:47;8.70;99.90
25554;DHT22;13446;50.926;5.332;2022-12-07T14:38:12;8.60;99.90
25554;DHT22;13446;50.926;5.332;2022-12-07T14:40:38;8.70;99.90
25554;DHT22;13446;50.926;5.332;2022-12-07T14:43:11;8.80;99.90
25554;DHT22;13446;50.926;5.332;2022-12-07T14:45:37;9.00;99.90
25554;DHT22;13446;50.926;5.332;2022-12-07T14:48:05;9.00;99.90
25554;DHT22;13446;50.926;5.332;2022-12-07T14:50:30;8.90;99.90
25554;DHT22;13446;50.926;5.332;2022-12-07T14:53:01;8.90;99.90
25554;DHT22;13446;50.926;5.332;2022-12-07T14:55:30;8.80;99.90
25554;DHT22;13446;50.926;5.332;2022-12-07T14:57:56;8.90;99.90
25554;DHT22;13446;50.926;5.332;2022-12-07T15:00:25;8.90;99.90
25554;DHT22;13446;50.926;5.332;2022-12-07T15:02:53;8.80;99.90
25554;DHT22;13446;50.926;5.332;2022-12-07T15:05:18;8.80;99.90
25554;DHT22;13446;50.926;5.332;2022-12-07T15:07:45;8.70;99.90
25554;DHT22;13446;50.926;5.332;2022-12-07T15:10:15;8.70;99.90
25554;DHT22;13446;50.926;5.332;2022-12-07T15:12:41;8.70;99.90
25554;DHT22;13446;50.926;5.332;2022-12-07T15:15:07;8.60;99.90
25554;DHT22;13446;50.926;5.332;2022-12-07T15:17:33;8.40;99.90
25554;DHT22;13446;50.926;5.332;2022-12-07T15:19:58;8.40;99.90
25554;DHT22;13446;50.926;5.332;2022-12-07T15:22:24;8.50;99.90
25554;DHT22;13446;50.926;5.332;2022-12-07T15:24:49;8.50;99.90
25554;DHT22;13446;50.926;5.332;2022-12-07T15:27:15;8.50;99.90
25554;DHT22;13446;50.926;5.332;2022-12-07T15:29:41;8.60;99.90
25554;DHT22;13446;50.926;5.332;2022-12-07T15:32:06;8.50;99.90
25554;DHT22;13446;50.926;5.332;2022-12-07T15:34:32;8.40;99.90
25554;DHT22;13446;50.926;5.332;2022-12-07T15:36:57;8.40;99.90
25554;DHT22;13446;50.926;5.332;2022-12-07T15:39:23;8.40;99.90
25554;DHT22;13446;50.926;5.332;2022-12-07T15:41:48;8.50;99.90
25554;DHT22;13446;50.926;5.332;2022-12-07T15:44:14;8.40;99.90
25554;DHT22;13446;50.926;5.332;2022-12-07T15:46:58;8.40;99.90
25554;DHT22;13446;50.926;5.332;2022-12-07T15:49:24;8.40;99.90
25554;DHT22;13446;50.926;5.332;2022-12-07T15:51:49;8.30;99.90
25554;DHT22;13446;50.926;5.332;2022-12-07T15:54:19;8.20;99.90
25554;DHT22;13446;50.926;5.332;2022-12-07T15:56:45;8.20;99.90
25554;DHT22;13446;50.926;5.332;2022-12-07T15:59:11;8.10;99.90
25554;DHT22;13446;50.926;5.332;2022-12-07T16:01:36;8.10;99.90
25554;DHT22;13446;50.926;5.332;2022-12-07T16:04:02;8.10;99.90
25554;DHT22;13446;50.926;5.332;2022-12-07T16:06:27;8.00;99.90
25554;DHT22;13446;50.926;5.332;2022-12-07T16:08:53;7.90;99.90
25554;DHT22;13446;50.926;5.332;2022-12-07T16:11:19;7.80;99.90
25554;DHT22;13446;50.926;5.332;2022-12-07T16:13:45;7.80;99.90
25554;DHT22;13446;50.926;5.332;2022-12-07T16:16:11;7.80;99.90
25554;DHT22;13446;50.926;5.332;2022-12-07T16:18:39;7.70;99.90
25554;DHT22;13446;50.926;5.332;2022-12-07T16:21:04;7.70;99.90
25554;DHT22;13446;50.926;5.332;2022-12-07T16:23:30;7.80;99.90
25554;DHT22;13446;50.926;5.332;2022-12-07T16:26:03;7.80;99.90
25554;DHT22;13446;50.926;5.332;2022-12-07T16:28:29;7.80;99.90
25554;DHT22;13446;50.926;5.332;2022-12-07T16:31:01;7.70;99.90
25554;DHT22;13446;50.926;5.332;2022-12-07T16:33:26;7.50;99.90
25554;DHT22;13446;50.926;5.332;2022-12-07T16:35:52;7.70;99.90
25554;DHT22;13446;50.926;5.332;2022-12-07T16:38:17;7.70;99.90
25554;DHT22;13446;50.926;5.332;2022-12-07T16:40:43;7.70;99.90
25554;DHT22;13446;50.926;5.332;2022-12-07T16:43:10;7.60;99.90
25554;DHT22;13446;50.926;5.332;2022-12-07T16:45:36;7.50;99.90
25554;DHT22;13446;50.926;5.332;2022-12-07T16:48:02;7.60;99.90
25554;DHT22;13446;50.926;5.332;2022-12-07T16:50:27;7.50;99.90
25554;DHT22;13446;50.926;5.332;2022-12-07T16:52:53;7.50;99.90
25554;DHT22;13446;50.926;5.332;2022-12-07T16:55:18;7.50;99.90
25554;DHT22;13446;50.926;5.332;2022-12-07T16:57:44;7.40;99.90
25554;DHT22;13446;50.926;5.332;2022-12-07T17:00:10;7.40;99.90
25554;DHT22;13446;50.926;5.332;2022-12-07T17:02:37;7.40;99.90
25554;DHT22;13446;50.926;5.332;2022-12-07T17:05:02;7.30;99.90
25554;DHT22;13446;50.926;5.332;2022-12-07T17:07:28;7.40;99.90
25554;DHT22;13446;50.926;5.332;2022-12-07T17:09:53;7.50;99.90
25554;DHT22;13446;50.926;5.332;2022-12-07T17:12:19;7.50;99.90
25554;DHT22;13446;50.926;5.332;2022-12-07T17:14:44;7.50;99.90
25554;DHT22;13446;50.926;5.332;2022-12-07T17:17:28;7.40;99.90
25554;DHT22;13446;50.926;5.332;2022-12-07T17:19:54;7.40;99.90
25554;DHT22;13446;50.926;5.332;2022-12-07T17:22:19;7.40;99.90
25554;DHT22;13446;50.926;5.332;2022-12-07T17:24:46;7.50;99.90
25554;DHT22;13446;50.926;5.332;2022-12-07T17:27:13;7.40;99.90
25554;DHT22;13446;50.926;5.332;2022-12-07T17:29:40;7.20;99.90
25554;DHT22;13446;50.926;5.332;2022-12-07T17:32:05;7.20;99.90
25554;DHT22;13446;50.926;5.332;2022-12-07T17:34:31;7.30;99.90
25554;DHT22;13446;50.926;5.332;2022-12-07T17:36:56;7.30;99.90
25554;DHT22;13446;50.926;5.332;2022-12-07T17:39:23;7.10;99.90
25554;DHT22;13446;50.926;5.332;2022-12-07T17:41:50;7.20;99.90
25554;DHT22;13446;50.926;5.332;2022-12-07T17:44:34;7.20;99.90
25554;DHT22;13446;50.926;5.332;2022-12-07T17:47:00;7.10;99.90
25554;DHT22;13446;50.926;5.332;2022-12-07T17:49:26;7.10;99.90
25554;DHT22;13446;50.926;5.332;2022-12-07T17:51:52;7.10;99.90
25554;DHT22;13446;50.926;5.332;2022-12-07T17:54:36;7.10;99.90
25554;DHT22;13446;50.926;5.332;2022-12-07T17:57:02;7.10;99.90
25554;DHT22;13446;50.926;5.332;2022-12-07T17:59:27;7.20;99.90
25554;DHT22;13446;50.926;5.332;2022-12-07T18:01:53;7.20;99.90
25554;DHT22;13446;50.926;5.332;2022-12-07T18:04:18;7.20;99.90
25554;DHT22;13446;50.926;5.332;2022-12-07T18:06:44;7.20;99.90